createdAt,value
2018-11-27T00:01:31.549Z,4.07
2018-11-27T00:04:00.982Z,4.05
2018-11-27T00:06:30.258Z,4.01
2018-11-27T00:08:59.596Z,3.94
2018-11-27T00:11:28.876Z,3.90
2018-11-27T00:13:58.128Z,3.86
2018-11-27T00:16:27.427Z,3.87
2018-11-27T00:18:56.797Z,3.88
2018-11-27T00:21:26.053Z,3.87
2018-11-27T00:23:55.362Z,3.80
2018-11-27T00:26:24.840Z,3.76
2018-11-27T00:28:54.234Z,3.83
2018-11-27T00:31:23.634Z,3.74
2018-11-27T00:33:53.235Z,3.64
2018-11-27T00:36:22.820Z,3.66
2018-11-27T00:38:52.105Z,3.45
2018-11-27T00:41:21.370Z,3.47
2018-11-27T00:43:50.641Z,3.38
2018-11-27T00:46:19.991Z,3.51
2018-11-27T00:48:49.248Z,3.61
2018-11-27T00:51:18.518Z,3.51
2018-11-27T00:53:47.806Z,3.52
2018-11-27T00:56:17.325Z,3.50
2018-11-27T00:58:46.536Z,3.37
2018-11-27T01:01:15.834Z,3.36
2018-11-27T01:03:45.212Z,3.27
2018-11-27T01:06:14.513Z,3.31
2018-11-27T01:08:43.867Z,3.35
2018-11-27T01:11:13.175Z,3.30
2018-11-27T01:13:42.511Z,3.32
2018-11-27T01:16:11.828Z,3.24
2018-11-27T01:18:41.117Z,3.28
2018-11-27T01:21:10.471Z,3.34
2018-11-27T01:23:39.763Z,3.35
2018-11-27T01:26:09.039Z,3.33
2018-11-27T01:28:38.300Z,3.33
2018-11-27T01:31:07.508Z,3.34
2018-11-27T01:38:30.867Z,3.21
2018-11-27T01:41:00.738Z,3.13
2018-11-27T01:43:30.140Z,3.22
2018-11-27T01:45:59.910Z,3.19
2018-11-27T01:48:29.132Z,3.21
2018-11-27T01:50:58.385Z,3.14
2018-11-27T01:53:27.707Z,3.17
2018-11-27T01:55:57.151Z,3.04
2018-11-27T01:58:26.375Z,3.06
2018-11-27T02:00:55.725Z,3.05
2018-11-27T02:03:25.159Z,3.10
2018-11-27T02:05:54.382Z,3.10
2018-11-27T02:08:24.807Z,3.11
2018-11-27T02:10:54.505Z,3.09
2018-11-27T02:13:23.984Z,3.10
2018-11-27T02:15:53.328Z,3.08
2018-11-27T02:18:22.648Z,3.01
2018-11-27T02:20:52.075Z,2.94
2018-11-27T02:23:21.530Z,3.00
2018-11-27T02:25:50.854Z,3.01
2018-11-27T02:28:20.144Z,2.89
2018-11-27T02:30:49.647Z,3.04
2018-11-27T02:33:18.891Z,3.03
2018-11-27T02:35:48.187Z,3.03
2018-11-27T02:38:19.056Z,2.99
2018-11-27T02:40:48.326Z,2.90
2018-11-27T02:43:17.963Z,2.93
2018-11-27T02:45:48.388Z,2.90
2018-11-27T02:48:17.631Z,2.85
2018-11-27T02:50:46.836Z,2.84
2018-11-27T02:53:16.173Z,2.86
2018-11-27T02:55:45.535Z,2.83
2018-11-27T02:58:14.739Z,2.84
2018-11-27T03:00:45.608Z,2.86
2018-11-27T03:03:14.852Z,2.83
2018-11-27T03:05:44.170Z,2.77
2018-11-27T03:08:13.768Z,2.79
2018-11-27T03:10:43.179Z,2.78
2018-11-27T03:13:12.478Z,2.76
2018-11-27T03:15:41.808Z,2.80
2018-11-27T03:18:11.137Z,2.82
2018-11-27T03:20:40.343Z,2.78
2018-11-27T03:23:09.688Z,2.79
2018-11-27T03:25:38.944Z,2.79
2018-11-27T03:28:08.192Z,2.77
2018-11-27T03:30:37.499Z,2.74
2018-11-27T03:33:06.702Z,2.75
2018-11-27T03:35:35.961Z,2.77
2018-11-27T03:38:05.319Z,2.79
2018-11-27T03:40:34.684Z,2.83
2018-11-27T03:43:04.624Z,2.84
2018-11-27T03:45:33.863Z,2.72
2018-11-27T03:48:03.331Z,2.80
2018-11-27T03:50:33.452Z,2.81
2018-11-27T03:53:02.688Z,2.84
2018-11-27T03:55:31.924Z,2.81
2018-11-27T03:58:01.218Z,2.83
2018-11-27T04:00:31.440Z,2.90
2018-11-27T04:03:05.469Z,2.79
2018-11-27T04:05:34.967Z,2.83
2018-11-27T04:08:04.301Z,2.85
2018-11-27T04:10:33.551Z,2.83
2018-11-27T04:13:02.821Z,2.90
2018-11-27T04:15:32.066Z,2.95
2018-11-27T04:18:01.373Z,2.95
2018-11-27T04:20:32.260Z,2.84
2018-11-27T04:22:59.932Z,2.78
2018-11-27T04:25:29.208Z,2.81
2018-11-27T04:27:58.449Z,2.87
2018-11-27T04:30:27.821Z,2.83
2018-11-27T04:32:57.125Z,2.83
2018-11-27T04:35:26.526Z,2.79
2018-11-27T04:37:56.181Z,2.83
2018-11-27T04:40:25.537Z,2.77
2018-11-27T04:42:54.771Z,2.77
2018-11-27T04:45:26.176Z,2.80
2018-11-27T04:47:55.523Z,2.76
2018-11-27T04:50:24.977Z,2.82
2018-11-27T04:52:54.200Z,2.81
2018-11-27T04:55:23.468Z,2.87
2018-11-27T04:57:53.426Z,2.90
2018-11-27T05:00:23.751Z,2.85
2018-11-27T05:02:53.011Z,2.84
2018-11-27T05:05:23.071Z,2.86
2018-11-27T05:07:52.407Z,2.82
2018-11-27T05:10:22.741Z,2.91
2018-11-27T05:12:52.204Z,2.81
2018-11-27T05:15:23.928Z,2.86
2018-11-27T05:17:55.502Z,2.82
2018-11-27T05:20:24.736Z,2.81
2018-11-27T05:22:54.095Z,2.74
2018-11-27T05:25:23.416Z,2.81
2018-11-27T05:27:55.851Z,2.78
2018-11-27T05:30:28.295Z,2.81
2018-11-27T05:32:58.278Z,2.76
2018-11-27T05:35:29.420Z,2.79
2018-11-27T05:38:01.816Z,2.80
2018-11-27T05:40:31.293Z,2.85
2018-11-27T05:43:02.213Z,2.90
2018-11-27T05:45:31.759Z,2.86
2018-11-27T05:48:01.135Z,2.90
2018-11-27T05:50:30.420Z,2.91
2018-11-27T05:52:59.711Z,2.86
2018-11-27T05:55:29.147Z,2.90
2018-11-27T05:57:58.618Z,2.93
2018-11-27T06:00:29.725Z,2.91
2018-11-27T06:03:00.703Z,2.87
2018-11-27T06:05:30.050Z,2.87
2018-11-27T06:07:59.404Z,2.95
2018-11-27T06:10:28.986Z,2.94
2018-11-27T06:12:58.624Z,2.84
2018-11-27T06:15:28.188Z,2.81
2018-11-27T06:18:00.127Z,2.80
2018-11-27T06:20:29.564Z,2.64
2018-11-27T06:22:59.000Z,2.62
2018-11-27T06:25:30.767Z,2.60
2018-11-27T06:28:01.826Z,2.63
2018-11-27T06:30:32.112Z,2.56
2018-11-27T06:36:15.781Z,2.56
2018-11-27T06:38:45.021Z,2.55
2018-11-27T06:41:14.584Z,2.50
2018-11-27T06:43:44.140Z,2.53
2018-11-27T06:46:13.455Z,2.51
2018-11-27T06:48:42.891Z,2.39
2018-11-27T06:51:12.224Z,2.42
2018-11-27T06:53:41.535Z,2.46
2018-11-27T06:56:10.742Z,2.45
2018-11-27T06:58:41.387Z,2.37
2018-11-27T07:01:10.582Z,2.35
2018-11-27T07:03:39.866Z,2.44
2018-11-27T07:06:10.100Z,2.41
2018-11-27T07:08:39.402Z,2.38
2018-11-27T07:11:08.669Z,2.37
2018-11-27T07:13:38.336Z,2.39
2018-11-27T07:16:07.792Z,2.41
2018-11-27T07:18:37.013Z,2.39
2018-11-27T07:21:07.291Z,2.43
2018-11-27T07:23:36.556Z,2.45
2018-11-27T07:26:06.340Z,2.42
2018-11-27T07:28:35.707Z,2.45
2018-11-27T07:31:05.147Z,2.53
2018-11-27T07:33:34.371Z,2.53
2018-11-27T07:36:03.723Z,2.48
2018-11-27T07:38:33.038Z,2.49
2018-11-27T07:41:02.241Z,2.60
2018-11-27T07:43:32.543Z,2.59
2018-11-27T07:46:01.935Z,2.59
2018-11-27T07:48:31.187Z,2.62
2018-11-27T07:51:00.565Z,2.72
2018-11-27T07:53:29.774Z,2.73
2018-11-27T07:55:58.972Z,2.74
2018-11-27T07:58:28.196Z,2.80
2018-11-27T08:00:57.483Z,2.84
2018-11-27T08:03:26.761Z,2.85
2018-11-27T08:05:56.057Z,2.88
2018-11-27T08:08:25.283Z,2.88
2018-11-27T08:10:54.643Z,2.89
2018-11-27T08:13:27.489Z,2.98
2018-11-27T08:15:56.807Z,2.96
2018-11-27T08:18:27.430Z,2.95
2018-11-27T08:20:56.890Z,3.10
2018-11-27T08:23:26.148Z,3.13
2018-11-27T08:25:55.836Z,3.10
2018-11-27T08:28:25.315Z,3.08
2018-11-27T08:30:54.622Z,3.12
2018-11-27T08:33:24.704Z,3.23
2018-11-27T08:35:54.195Z,3.11
2018-11-27T08:38:23.514Z,3.07
2018-11-27T08:40:52.906Z,3.18
2018-11-27T08:43:22.172Z,3.29
2018-11-27T08:45:51.545Z,3.38
2018-11-27T08:48:20.786Z,3.46
2018-11-27T08:50:50.042Z,3.44
2018-11-27T08:53:19.377Z,3.43
2018-11-27T08:55:48.692Z,3.56
2018-11-27T08:58:21.635Z,3.78
2018-11-27T09:00:50.927Z,3.71
2018-11-27T09:03:20.244Z,3.68
2018-11-27T09:05:49.578Z,3.70
2018-11-27T09:08:18.859Z,3.73
2018-11-27T09:10:48.184Z,3.79
2018-11-27T09:13:17.540Z,3.85
2018-11-27T09:15:47.801Z,3.78
2018-11-27T09:18:19.472Z,3.66
2018-11-27T09:20:48.773Z,3.76
2018-11-27T09:23:18.038Z,3.94
2018-11-27T09:25:47.273Z,4.12
2018-11-27T09:28:16.554Z,4.26
2018-11-27T09:30:45.879Z,4.28
2018-11-27T09:33:15.381Z,4.23
2018-11-27T09:35:44.986Z,4.19
2018-11-27T09:38:14.219Z,4.09
2018-11-27T09:40:43.610Z,4.01
2018-11-27T09:43:12.922Z,4.05
2018-11-27T09:45:43.578Z,4.02
2018-11-27T09:48:13.028Z,4.13
2018-11-27T09:50:42.307Z,4.13
2018-11-27T09:53:13.067Z,4.21
2018-11-27T09:55:43.441Z,4.30
2018-11-27T09:58:12.776Z,4.41
2018-11-27T10:00:42.136Z,4.50
2018-11-27T10:03:12.969Z,4.52
2018-11-27T10:05:42.218Z,4.45
2018-11-27T10:08:11.509Z,4.62
2018-11-27T10:10:41.895Z,4.78
2018-11-27T10:13:11.165Z,4.74
2018-11-27T10:15:40.446Z,4.79
2018-11-27T10:18:09.793Z,4.79
2018-11-27T10:20:40.163Z,4.75
2018-11-27T10:23:13.562Z,4.86
2018-11-27T10:25:43.033Z,4.87
2018-11-27T10:28:12.292Z,5.03
2018-11-27T10:30:44.300Z,5.15
2018-11-27T10:33:13.558Z,5.20
2018-11-27T10:35:44.542Z,5.14
2018-11-27T10:38:13.774Z,5.31
2018-11-27T10:40:43.171Z,5.11
2018-11-27T10:43:12.653Z,4.98
2018-11-27T10:45:42.203Z,5.25
2018-11-27T10:48:11.471Z,5.27
2018-11-27T10:50:40.775Z,5.32
2018-11-27T10:53:11.192Z,5.19
2018-11-27T10:55:40.576Z,5.11
2018-11-27T10:58:09.826Z,5.18
2018-11-27T11:00:45.510Z,5.20
2018-11-27T11:03:45.143Z,5.16
2018-11-27T11:06:14.525Z,5.20
2018-11-27T11:08:43.923Z,5.25
2018-11-27T11:11:13.228Z,5.29
2018-11-27T11:13:42.939Z,5.31
2018-11-27T11:16:12.195Z,5.20
2018-11-27T11:18:41.492Z,5.18
2018-11-27T11:21:11.082Z,4.98
2018-11-27T11:23:40.552Z,5.07
2018-11-27T11:26:09.842Z,5.08
2018-11-27T11:28:39.061Z,4.96
2018-11-27T11:31:08.365Z,4.60
2018-11-27T11:33:37.831Z,4.61
2018-11-27T11:36:07.655Z,4.42
2018-11-27T11:38:37.540Z,4.56
2018-11-27T11:41:07.420Z,4.52
2018-11-27T11:43:36.728Z,4.21
2018-11-27T11:46:06.796Z,4.17
2018-11-27T11:48:36.182Z,4.21
2018-11-27T11:51:07.237Z,4.51
2018-11-27T11:53:36.547Z,4.67
2018-11-27T11:56:07.629Z,4.76
2018-11-27T11:58:36.984Z,4.72
2018-11-27T12:01:06.838Z,4.79
2018-11-27T12:03:36.072Z,4.46
2018-11-27T12:06:05.491Z,4.85
2018-11-27T12:08:34.926Z,5.10
2018-11-27T12:11:04.250Z,5.17
2018-11-27T12:13:33.386Z,5.26
2018-11-27T12:16:03.366Z,5.02
2018-11-27T12:18:32.559Z,4.51
2018-11-27T12:21:02.040Z,4.28
2018-11-27T12:23:32.183Z,4.42
2018-11-27T12:26:01.581Z,4.38
2018-11-27T12:28:30.864Z,4.37
2018-11-27T12:31:00.165Z,4.41
2018-11-27T12:33:29.490Z,4.38
2018-11-27T12:35:58.709Z,4.53
2018-11-27T12:38:28.379Z,4.47
2018-11-27T12:40:57.717Z,4.54
2018-11-27T12:43:27.102Z,4.40
2018-11-27T12:45:56.604Z,4.38
2018-11-27T12:48:25.926Z,4.57
2018-11-27T12:50:55.514Z,4.56
2018-11-27T12:53:25.408Z,4.61
2018-11-27T12:55:55.352Z,4.67
2018-11-27T12:58:24.944Z,4.69
2018-11-27T13:00:54.358Z,4.60
2018-11-27T13:03:23.604Z,4.62
2018-11-27T13:05:52.946Z,4.53
2018-11-27T13:08:23.612Z,4.61
2018-11-27T13:10:53.181Z,4.59
2018-11-27T13:13:22.456Z,4.63
2018-11-27T13:15:52.007Z,4.64
2018-11-27T13:18:21.398Z,4.70
2018-11-27T13:20:50.625Z,4.58
2018-11-27T13:23:20.009Z,4.64
2018-11-27T13:25:49.332Z,4.61
2018-11-27T13:28:18.726Z,4.63
2018-11-27T13:30:56.895Z,4.63
2018-11-27T13:34:00.602Z,4.38
2018-11-27T13:36:30.271Z,4.35
2018-11-27T13:39:10.773Z,4.44
2018-11-27T13:41:40.051Z,4.33
2018-11-27T13:44:09.635Z,4.26
2018-11-27T13:46:39.046Z,4.11
2018-11-27T13:49:08.606Z,4.16
2018-11-27T13:51:37.983Z,4.22
2018-11-27T13:54:07.963Z,4.34
2018-11-27T13:56:38.186Z,4.38
2018-11-27T13:59:07.359Z,4.43
2018-11-27T14:01:37.715Z,4.36
2018-11-27T14:04:06.473Z,4.30
2018-11-27T14:06:35.755Z,4.32
2018-11-27T14:09:09.016Z,4.32
2018-11-27T14:11:38.494Z,4.28
2018-11-27T14:14:08.475Z,4.32
2018-11-27T14:16:38.446Z,4.35
2018-11-27T14:19:07.769Z,4.30
2018-11-27T14:21:37.020Z,4.37
2018-11-27T14:24:07.205Z,4.67
2018-11-27T14:26:36.908Z,4.63
2018-11-27T14:29:06.647Z,4.72
2018-11-27T14:31:36.013Z,4.83
2018-11-27T14:34:05.899Z,4.72
2018-11-27T14:36:35.244Z,4.68
2018-11-27T14:39:08.384Z,4.79
2018-11-27T14:41:38.767Z,4.85
2018-11-27T14:44:07.996Z,4.85
2018-11-27T14:46:37.248Z,4.91
2018-11-27T14:49:06.583Z,4.76
2018-11-27T14:51:35.828Z,4.85
2018-11-27T14:54:09.402Z,4.85
2018-11-27T14:56:38.761Z,4.87
2018-11-27T14:59:08.181Z,4.74
2018-11-27T15:01:37.434Z,4.72
2018-11-27T15:04:06.746Z,4.68
2018-11-27T15:06:36.483Z,4.82
2018-11-27T15:09:09.205Z,4.62
2018-11-27T15:11:38.471Z,4.62
2018-11-27T15:14:07.718Z,4.53
2018-11-27T15:16:37.063Z,4.64
2018-11-27T15:19:06.449Z,4.41
2018-11-27T15:21:35.809Z,4.26
2018-11-27T15:24:05.486Z,4.18
2018-11-27T15:26:35.186Z,4.18
2018-11-27T15:29:04.505Z,4.20
2018-11-27T15:31:33.759Z,4.10
2018-11-27T15:34:03.071Z,4.21
2018-11-27T15:36:32.406Z,4.15
2018-11-27T15:39:01.834Z,4.11
2018-11-27T15:41:31.227Z,4.14
2018-11-27T15:44:01.534Z,4.26
2018-11-27T15:46:30.760Z,4.19
2018-11-27T15:49:00.837Z,4.22
2018-11-27T15:51:30.060Z,4.21
2018-11-27T15:53:59.389Z,4.21
2018-11-27T15:56:29.177Z,4.31
2018-11-27T15:58:58.550Z,4.42
2018-11-27T16:01:27.792Z,4.50
2018-11-27T16:03:57.704Z,4.31
2018-11-27T16:06:27.076Z,4.39
2018-11-27T16:08:56.339Z,4.41
2018-11-27T16:11:25.766Z,4.26
2018-11-27T16:13:55.798Z,4.19
2018-11-27T16:16:24.522Z,4.07
2018-11-27T16:18:53.958Z,4.12
2018-11-27T16:21:23.365Z,4.20
2018-11-27T16:23:52.640Z,4.21
2018-11-27T16:26:22.185Z,4.41
2018-11-27T16:28:51.510Z,4.43
2018-11-27T16:31:20.788Z,4.48
2018-11-27T16:33:51.159Z,4.56
2018-11-27T16:36:20.452Z,4.45
2018-11-27T16:38:49.957Z,4.33
2018-11-27T16:41:19.343Z,4.36
2018-11-27T16:43:48.626Z,4.25
2018-11-27T16:46:17.927Z,4.11
2018-11-27T16:48:47.226Z,4.26
2018-11-27T16:51:16.529Z,3.95
2018-11-27T16:53:46.558Z,3.89
2018-11-27T16:56:15.850Z,3.81
2018-11-27T16:58:45.212Z,3.99
2018-11-27T17:01:14.420Z,3.94
2018-11-27T17:03:43.872Z,4.11
2018-11-27T17:06:13.600Z,4.24
2018-11-27T17:08:42.832Z,4.29
2018-11-27T17:11:12.136Z,4.39
2018-11-27T17:13:41.472Z,4.34
2018-11-27T17:16:10.791Z,4.32
2018-11-27T17:18:40.125Z,4.23
2018-11-27T17:21:09.423Z,4.04
2018-11-27T17:23:38.778Z,4.16
2018-11-27T17:26:08.090Z,4.18
2018-11-27T17:28:38.038Z,4.05
2018-11-27T17:31:12.857Z,4.22
2018-11-27T17:34:15.302Z,4.20
2018-11-27T17:36:44.572Z,4.28
2018-11-27T17:39:13.879Z,4.33
2018-11-27T17:41:43.171Z,4.43
2018-11-27T17:44:14.654Z,4.48
2018-11-27T17:46:44.160Z,4.44
2018-11-27T17:49:13.493Z,4.32
2018-11-27T17:51:42.783Z,4.31
2018-11-27T17:54:12.161Z,4.33
2018-11-27T17:56:42.529Z,4.23
2018-11-27T17:59:13.021Z,4.18
2018-11-27T18:01:42.388Z,4.18
2018-11-27T18:04:11.651Z,4.17
2018-11-27T18:06:40.998Z,4.15
2018-11-27T18:09:10.288Z,4.28
2018-11-27T18:11:40.196Z,4.30
2018-11-27T18:14:09.423Z,4.27
2018-11-27T18:16:38.731Z,4.21
2018-11-27T18:19:08.044Z,4.17
2018-11-27T18:21:37.323Z,4.10
2018-11-27T18:24:06.744Z,4.12
2018-11-27T18:26:35.967Z,4.21
2018-11-27T18:29:05.810Z,4.16
2018-11-27T18:31:35.102Z,4.25
2018-11-27T18:34:04.594Z,4.13
2018-11-27T18:36:34.068Z,4.09
2018-11-27T18:39:06.755Z,3.90
2018-11-27T18:41:37.370Z,3.98
2018-11-27T18:44:07.434Z,4.09
2018-11-27T18:46:36.973Z,4.08
2018-11-27T18:49:06.443Z,4.18
2018-11-27T18:51:35.708Z,4.28
2018-11-27T18:54:06.822Z,4.23
2018-11-27T18:56:36.217Z,4.12
2018-11-27T18:59:05.543Z,4.11
2018-11-27T19:01:35.495Z,4.07
2018-11-27T19:04:04.853Z,4.16
2018-11-27T19:06:34.102Z,4.17
2018-11-27T19:09:03.464Z,4.12
2018-11-27T19:11:32.956Z,4.16
2018-11-27T19:14:02.173Z,4.20
2018-11-27T19:16:32.315Z,4.13
2018-11-27T19:19:01.660Z,4.04
2018-11-27T19:21:31.057Z,4.04
2018-11-27T19:24:00.529Z,4.04
2018-11-27T19:26:29.739Z,4.07
2018-11-27T19:28:59.075Z,4.09
2018-11-27T19:31:28.388Z,4.12
2018-11-27T19:33:57.643Z,4.14
2018-11-27T19:36:26.924Z,4.23
2018-11-27T19:38:56.276Z,4.29
2018-11-27T19:41:25.571Z,4.21
2018-11-27T19:43:54.870Z,4.19
2018-11-27T19:46:24.947Z,4.12
2018-11-27T19:48:54.199Z,4.01
2018-11-27T19:51:23.682Z,3.91
2018-11-27T19:53:53.272Z,3.94
2018-11-27T19:56:22.527Z,3.97
2018-11-27T20:01:33.921Z,3.80
2018-11-27T20:04:04.629Z,3.77
2018-11-27T20:06:36.265Z,3.82
2018-11-27T20:09:08.935Z,3.85
2018-11-27T20:11:40.185Z,3.94
2018-11-27T20:14:11.732Z,3.90
2018-11-27T20:16:41.599Z,3.77
2018-11-27T20:19:11.878Z,3.84
2018-11-27T20:21:42.652Z,3.77
2018-11-27T20:24:13.068Z,3.88
2018-11-27T20:26:48.533Z,3.91
2018-11-27T20:29:19.137Z,3.95
2018-11-27T20:31:53.523Z,3.96
2018-11-27T20:34:25.010Z,3.99
2018-11-27T20:36:55.368Z,4.09
2018-11-27T20:39:25.457Z,4.10
2018-11-27T20:41:55.816Z,4.03
2018-11-27T20:44:27.058Z,4.05
2018-11-27T20:46:57.425Z,3.94
2018-11-27T20:49:33.093Z,3.89
2018-11-27T20:52:04.054Z,3.90
2018-11-27T20:54:34.159Z,3.90
2018-11-27T20:57:05.472Z,3.97
2018-11-27T20:59:36.553Z,3.93
2018-11-27T21:02:08.390Z,4.04
2018-11-27T21:04:38.872Z,4.07
2018-11-27T21:07:09.908Z,4.04
2018-11-27T21:09:39.511Z,4.04
2018-11-27T21:12:10.959Z,4.05
2018-11-27T21:14:42.288Z,4.03
2018-11-27T21:17:15.151Z,3.97
2018-11-27T21:19:44.428Z,4.02
2018-11-27T21:22:22.468Z,4.02
2018-11-27T21:25:06.798Z,3.92
2018-11-27T21:27:37.494Z,3.90
2018-11-27T21:30:15.922Z,3.91
2018-11-27T21:32:50.321Z,3.87
2018-11-27T21:35:19.785Z,3.81
2018-11-27T21:37:50.052Z,3.79
2018-11-27T21:40:20.722Z,3.78
2018-11-27T21:42:51.937Z,3.87
2018-11-27T21:45:22.926Z,3.95
2018-11-27T21:47:55.234Z,3.90
2018-11-27T21:50:43.213Z,3.92
2018-11-27T21:53:18.562Z,3.87
2018-11-27T21:55:49.793Z,3.75
2018-11-27T21:58:19.200Z,3.81
2018-11-27T22:00:48.472Z,3.84
2018-11-27T22:03:17.775Z,3.64
2018-11-27T22:05:47.367Z,3.63
2018-11-27T22:08:16.698Z,3.71
2018-11-27T22:10:45.969Z,3.66
2018-11-27T22:13:15.273Z,3.68
2018-11-27T22:15:45.111Z,3.51
2018-11-27T22:18:14.670Z,3.48
2018-11-27T22:20:43.998Z,3.52
2018-11-27T22:23:13.284Z,3.51
2018-11-27T22:25:42.543Z,3.47
2018-11-27T22:28:11.918Z,3.56
2018-11-27T22:30:41.208Z,3.58
2018-11-27T22:33:10.527Z,3.57
2018-11-27T22:35:40.361Z,3.53
2018-11-27T22:38:09.692Z,3.61
2018-11-27T22:40:40.538Z,3.57
2018-11-27T22:43:09.872Z,3.61
2018-11-27T22:45:40.420Z,3.60
2018-11-27T22:48:12.174Z,3.53
2018-11-27T22:50:40.514Z,3.49
2018-11-27T22:53:09.997Z,3.43
2018-11-27T22:55:41.867Z,3.39
2018-11-27T22:58:11.179Z,3.30
2018-11-27T23:00:46.162Z,3.35
2018-11-27T23:03:15.577Z,3.34
2018-11-27T23:05:44.904Z,3.33
2018-11-27T23:08:14.294Z,3.34
2018-11-27T23:10:44.934Z,3.29
2018-11-27T23:13:15.164Z,3.30
2018-11-27T23:15:44.458Z,3.30
2018-11-27T23:18:13.756Z,3.29
2018-11-27T23:20:43.036Z,3.31
2018-11-27T23:23:12.347Z,3.30
2018-11-27T23:25:41.613Z,3.33
2018-11-27T23:28:10.992Z,3.29
2018-11-27T23:30:40.686Z,3.29
2018-11-27T23:33:09.973Z,3.29
2018-11-27T23:35:39.582Z,3.27
2018-11-27T23:38:08.874Z,3.28
2018-11-27T23:40:38.260Z,3.35
2018-11-27T23:43:07.535Z,3.41
2018-11-27T23:45:37.021Z,3.40
2018-11-27T23:48:06.970Z,3.40
2018-11-27T23:50:36.276Z,3.33
2018-11-27T23:53:06.096Z,3.34
2018-11-27T23:55:35.500Z,3.30
2018-11-27T23:58:04.916Z,3.28
